Time,TemperatureF,DewpointF,PressureIn,WindDirection,WindDirectionDegrees,WindSpeedMPH,WindSpeedGustMPH,Humidity,HourlyPrecipIn,Conditions,Clouds,dailyrainin,SoftwareType,DateUTC
2013-04-15 00:00:00,32.0,15.4,30.21,WSW,247,0.0,0.0,50,0.00,,,0.00,Weather View 32 v70,2013-04-15 04:00:00,
2013-04-15 00:01:00,32.0,15.0,30.21,WSW,247,0.0,0.0,49,0.00,,,0.00,Weather View 32 v70,2013-04-15 04:01:00,
2013-04-15 00:06:00,32.0,15.0,30.21,WSW,247,0.0,0.0,49,0.00,,,0.00,Weather View 32 v70,2013-04-15 04:06:00,
2013-04-15 00:11:00,32.0,15.9,30.21,WSW,247,0.0,0.0,51,0.00,,,0.00,Weather View 32 v70,2013-04-15 04:11:00,
2013-04-15 00:16:00,32.0,14.0,30.21,WSW,247,0.0,0.0,47,0.00,,,0.00,Weather View 32 v70,2013-04-15 04:16:00,
2013-04-15 00:21:00,32.0,13.0,30.21,WSW,247,0.0,0.0,45,0.00,,,0.00,Weather View 32 v70,2013-04-15 04:21:00,
2013-04-15 00:26:00,32.0,9.8,30.21,WSW,247,0.0,0.0,39,0.00,,,0.00,Weather View 32 v70,2013-04-15 04:26:00,
2013-04-15 00:31:00,32.0,11.5,30.21,WSW,247,0.0,0.0,42,0.00,,,0.00,Weather View 32 v70,2013-04-15 04:31:00,
2013-04-15 00:36:00,32.0,10.9,30.21,WSW,247,0.0,0.0,41,0.00,,,0.00,Weather View 32 v70,2013-04-15 04:36:00,
2013-04-15 00:41:00,32.0,11.5,30.21,WSW,247,0.0,0.0,42,0.00,,,0.00,Weather View 32 v70,2013-04-15 04:41:00,
2013-04-15 00:46:00,31.0,11.1,30.20,WSW,247,0.0,0.0,43,0.00,,,0.00,Weather View 32 v70,2013-04-15 04:46:00,
2013-04-15 00:51:00,31.0,12.6,30.21,WSW,247,0.0,0.0,46,0.00,,,0.00,Weather View 32 v70,2013-04-15 04:51:00,
2013-04-15 00:56:00,31.0,14.1,30.21,WSW,247,0.0,0.0,49,0.00,,,0.00,Weather View 32 v70,2013-04-15 04:56:00,
2013-04-15 01:01:00,30.0,11.2,30.21,WSW,247,0.0,0.0,45,0.00,,,0.00,Weather View 32 v70,2013-04-15 05:01:00,
2013-04-15 01:07:00,30.0,12.2,30.21,WSW,247,0.0,0.0,47,0.00,,,0.00,Weather View 32 v70,2013-04-15 05:07:00,
2013-04-15 01:12:00,30.0,12.2,30.21,WSW,247,0.0,0.0,47,0.00,,,0.00,Weather View 32 v70,2013-04-15 05:12:00,
2013-04-15 01:17:00,30.0,11.2,30.21,WSW,247,0.0,0.0,45,0.00,,,0.00,Weather View 32 v70,2013-04-15 05:17:00,
2013-04-15 01:22:00,30.0,11.2,30.21,WSW,247,0.0,0.0,45,0.00,,,0.00,Weather View 32 v70,2013-04-15 05:22:00,
2013-04-15 01:27:00,30.0,11.2,30.21,WSW,247,0.0,0.0,45,0.00,,,0.00,Weather View 32 v70,2013-04-15 05:27:00,
2013-04-15 01:32:00,30.0,10.2,30.21,WSW,247,0.0,0.0,43,0.00,,,0.00,Weather View 32 v70,2013-04-15 05:32:00,
2013-04-15 01:37:00,30.0,8.0,30.21,WSW,247,0.0,0.0,39,0.00,,,0.00,Weather View 32 v70,2013-04-15 05:37:00,
2013-04-15 01:42:00,30.0,7.4,30.21,WSW,247,0.0,0.0,38,0.00,,,0.00,Weather View 32 v70,2013-04-15 05:42:00,
2013-04-15 01:47:00,30.0,8.6,30.21,WSW,247,0.0,0.0,40,0.00,,,0.00,Weather View 32 v70,2013-04-15 05:47:00,
2013-04-15 01:52:00,30.0,9.1,30.21,WSW,247,0.0,0.0,41,0.00,,,0.00,Weather View 32 v70,2013-04-15 05:52:00,
2013-04-15 01:57:00,30.0,8.6,30.21,WSW,247,0.0,0.0,40,0.00,,,0.00,Weather View 32 v70,2013-04-15 05:57:00,
2013-04-15 02:02:00,29.0,6.0,30.21,WSW,247,0.0,0.0,37,0.00,,,0.00,Weather View 32 v70,2013-04-15 06:02:00,
2013-04-15 02:07:00,30.0,7.4,30.21,WSW,247,0.0,0.0,38,0.00,,,0.00,Weather View 32 v70,2013-04-15 06:07:00,
2013-04-15 02:12:00,30.0,4.4,30.21,WSW,247,1.0,2.0,33,0.00,,,0.00,Weather View 32 v70,2013-04-15 06:12:00,
2013-04-15 02:17:00,30.0,6.9,30.21,WSW,247,0.0,2.0,37,0.00,,,0.00,Weather View 32 v70,2013-04-15 06:17:00,
2013-04-15 02:22:00,30.0,8.0,30.21,WSW,247,0.0,2.0,39,0.00,,,0.00,Weather View 32 v70,2013-04-15 06:22:00,
2013-04-15 02:27:00,30.0,9.7,30.21,WSW,247,0.0,2.0,42,0.00,,,0.00,Weather View 32 v70,2013-04-15 06:27:00,
2013-04-15 02:32:00,29.0,10.3,30.21,WSW,247,0.0,2.0,45,0.00,,,0.00,Weather View 32 v70,2013-04-15 06:32:00,
2013-04-15 02:37:00,29.0,9.8,30.21,WSW,247,0.0,2.0,44,0.00,,,0.00,Weather View 32 v70,2013-04-15 06:37:00,
2013-04-15 02:42:00,29.0,9.3,30.21,WSW,247,0.0,2.0,43,0.00,,,0.00,Weather View 32 v70,2013-04-15 06:42:00,
2013-04-15 02:47:00,29.0,9.3,30.21,WSW,247,0.0,2.0,43,0.00,,,0.00,Weather View 32 v70,2013-04-15 06:47:00,
2013-04-15 02:52:00,29.0,9.8,30.21,WSW,247,0.0,2.0,44,0.00,,,0.00,Weather View 32 v70,2013-04-15 06:52:00,
2013-04-15 02:57:00,28.0,9.4,30.21,WSW,247,0.0,2.0,45,0.00,,,0.00,Weather View 32 v70,2013-04-15 06:57:00,
2013-04-15 03:02:00,28.0,9.4,30.21,WSW,247,0.0,2.0,45,0.00,,,0.00,Weather View 32 v70,2013-04-15 07:02:00,
2013-04-15 03:41:00,29.0,-0.8,30.21,WSW,247,0.0,0.0,27,0.00,,,0.00,Weather View 32 v70,2013-04-15 07:41:00,
2013-04-15 03:42:00,29.0,-0.8,30.21,WSW,247,0.0,0.0,27,0.00,,,0.00,Weather View 32 v70,2013-04-15 07:42:00,
2013-04-15 03:47:00,29.0,-0.1,30.22,WSW,247,0.0,0.0,28,0.00,,,0.00,Weather View 32 v70,2013-04-15 07:47:00,
2013-04-15 03:48:00,29.0,-1.6,30.22,WSW,247,0.0,0.0,26,0.00,,,0.00,Weather View 32 v70,2013-04-15 07:48:00,
2013-04-15 03:50:00,29.0,-5.1,30.22,WSW,247,0.0,1.0,22,0.00,,,0.00,Weather View 32 v70,2013-04-15 07:50:00,
2013-04-15 03:55:00,29.0,-3.3,30.23,WSW,247,0.0,1.0,24,0.00,,,0.00,Weather View 32 v70,2013-04-15 07:55:00,
2013-04-15 04:00:00,28.0,-1.7,30.23,WSW,247,0.0,1.0,27,0.00,,,0.00,Weather View 32 v70,2013-04-15 08:00:00,
2013-04-15 04:05:00,28.0,-0.2,30.23,WSW,247,0.0,1.0,29,0.00,,,0.00,Weather View 32 v70,2013-04-15 08:05:00,
2013-04-15 04:10:00,28.0,0.5,30.23,WSW,247,0.0,1.0,30,0.00,,,0.00,Weather View 32 v70,2013-04-15 08:10:00,
2013-04-15 04:15:00,27.0,1.0,30.23,WSW,247,0.0,1.0,32,0.00,,,0.00,Weather View 32 v70,2013-04-15 08:15:00,
2013-04-15 04:20:00,27.0,0.4,30.23,WSW,247,0.0,1.0,31,0.00,,,0.00,Weather View 32 v70,2013-04-15 08:20:00,
2013-04-15 04:25:00,27.0,-1.0,30.23,WSW,247,0.0,1.0,29,0.00,,,0.00,Weather View 32 v70,2013-04-15 08:25:00,
2013-04-15 04:30:00,27.0,-1.8,30.24,WSW,247,0.0,1.0,28,0.00,,,0.00,Weather View 32 v70,2013-04-15 08:30:00,
2013-04-15 04:35:00,27.0,-1.0,30.23,WSW,247,0.0,1.0,29,0.00,,,0.00,Weather View 32 v70,2013-04-15 08:35:00,
2013-04-15 04:40:00,27.0,-1.0,30.24,WSW,247,0.0,1.0,29,0.00,,,0.00,Weather View 32 v70,2013-04-15 08:40:00,
2013-04-15 04:45:00,27.0,-1.8,30.24,WSW,247,0.0,1.0,28,0.00,,,0.00,Weather View 32 v70,2013-04-15 08:45:00,
2013-04-15 04:50:00,27.0,-5.0,30.24,WSW,247,0.0,0.0,24,0.00,,,0.00,Weather View 32 v70,2013-04-15 08:50:00,
2013-04-15 04:55:00,27.0,-7.8,30.24,WSW,247,0.0,0.0,21,0.00,,,0.00,Weather View 32 v70,2013-04-15 08:55:00,
2013-04-15 05:00:00,27.0,-9.8,30.24,WSW,247,0.0,0.0,19,0.00,,,0.00,Weather View 32 v70,2013-04-15 09:00:00,
2013-04-15 05:05:00,27.0,-12.0,30.24,WSW,247,0.0,0.0,17,0.00,,,0.00,Weather View 32 v70,2013-04-15 09:05:00,
2013-04-15 05:10:00,27.0,-12.0,30.25,WSW,247,0.0,0.0,17,0.00,,,0.00,Weather View 32 v70,2013-04-15 09:10:00,
2013-04-15 05:15:00,27.0,-18.9,30.24,WSW,247,0.0,0.0,12,0.00,,,0.00,Weather View 32 v70,2013-04-15 09:15:00,
2013-04-15 05:20:00,28.0,-18.1,30.25,WSW,247,0.0,0.0,12,0.00,,,0.00,Weather View 32 v70,2013-04-15 09:20:00,
2013-04-15 05:25:00,27.0,-15.9,30.25,WSW,247,0.0,0.0,14,0.00,,,0.00,Weather View 32 v70,2013-04-15 09:25:00,
2013-04-15 05:30:00,27.0,-15.9,30.25,WSW,247,0.0,0.0,14,0.00,,,0.00,Weather View 32 v70,2013-04-15 09:30:00,
2013-04-15 05:35:00,28.0,-19.8,30.25,WSW,247,0.0,0.0,11,0.00,,,0.00,Weather View 32 v70,2013-04-15 09:35:00,
2013-04-15 05:40:00,28.0,-23.6,30.25,WSW,247,0.0,0.0,9,0.00,,,0.00,Weather View 32 v70,2013-04-15 09:40:00,
2013-04-15 05:45:00,28.0,-23.6,30.26,WSW,247,0.0,0.0,9,0.00,,,0.00,Weather View 32 v70,2013-04-15 09:45:00,
2013-04-15 05:50:00,28.0,-21.6,30.26,WSW,247,0.0,0.0,10,0.00,,,0.00,Weather View 32 v70,2013-04-15 09:50:00,
2013-04-15 05:55:00,28.0,-19.8,30.26,WSW,247,0.0,0.0,11,0.00,,,0.00,Weather View 32 v70,2013-04-15 09:55:00,
2013-04-15 06:00:00,27.0,-18.9,30.27,WSW,247,0.0,0.0,12,0.00,,,0.00,Weather View 32 v70,2013-04-15 10:00:00,
2013-04-15 06:05:00,27.0,-18.9,30.27,WSW,247,0.0,0.0,12,0.00,,,0.00,Weather View 32 v70,2013-04-15 10:05:00,
2013-04-15 06:10:00,27.0,-17.3,30.27,WSW,247,0.0,0.0,13,0.00,,,0.00,Weather View 32 v70,2013-04-15 10:10:00,
2013-04-15 06:15:00,27.0,-17.3,30.27,WSW,247,0.0,0.0,13,0.00,,,0.00,Weather View 32 v70,2013-04-15 10:15:00,
2013-04-15 06:20:00,27.0,-17.3,30.28,WSW,247,0.0,0.0,13,0.00,,,0.00,Weather View 32 v70,2013-04-15 10:20:00,
2013-04-15 06:25:00,27.0,-17.3,30.28,WSW,247,0.0,0.0,13,0.00,,,0.00,Weather View 32 v70,2013-04-15 10:25:00,
2013-04-15 06:30:00,27.0,-18.9,30.29,WSW,247,0.0,0.0,12,0.00,,,0.00,Weather View 32 v70,2013-04-15 10:30:00,
2013-04-15 06:35:00,27.0,-20.5,30.29,WSW,247,0.0,0.0,11,0.00,,,0.00,Weather View 32 v70,2013-04-15 10:35:00,
2013-04-15 06:40:00,28.0,-21.6,30.29,WSW,247,0.0,0.0,10,0.00,,,0.00,Weather View 32 v70,2013-04-15 10:40:00,
2013-04-15 06:45:00,28.0,-21.6,30.30,WSW,247,0.0,0.0,10,0.00,,,0.00,Weather View 32 v70,2013-04-15 10:45:00,
2013-04-15 06:50:00,28.0,-23.6,30.30,WSW,247,0.0,0.0,9,0.00,,,0.00,Weather View 32 v70,2013-04-15 10:50:00,
2013-04-15 06:55:00,29.0,-22.8,30.31,WSW,247,0.0,0.0,9,0.00,,,0.00,Weather View 32 v70,2013-04-15 10:55:00,
2013-04-15 07:01:00,29.0,-25.0,30.31,WSW,247,0.0,0.0,8,0.00,,,0.00,Weather View 32 v70,2013-04-15 11:01:00,
2013-04-15 07:06:00,29.0,-25.0,30.31,WSW,247,0.0,0.0,8,0.00,,,0.00,Weather View 32 v70,2013-04-15 11:06:00,
2013-04-15 07:11:00,30.0,-26.7,30.32,WSW,247,0.0,1.0,7,0.00,,,0.00,Weather View 32 v70,2013-04-15 11:11:00,
2013-04-15 07:16:00,30.0,-26.7,30.32,WSW,247,0.0,1.0,7,0.00,,,0.00,Weather View 32 v70,2013-04-15 11:16:00,
2013-04-15 07:21:00,31.0,-28.8,30.33,WSW,247,0.0,1.0,6,0.00,,,0.00,Weather View 32 v70,2013-04-15 11:21:00,
2013-04-15 07:26:00,31.0,-32.1,30.33,WSW,247,1.0,1.0,5,0.00,,,0.00,Weather View 32 v70,2013-04-15 11:26:00,
2013-04-15 07:31:00,32.0,-31.4,30.33,WSW,247,0.0,1.0,5,0.00,,,0.00,Weather View 32 v70,2013-04-15 11:31:00,
2013-04-15 07:36:00,32.0,-35.4,30.34,WSW,247,2.0,3.0,4,0.00,,,0.00,Weather View 32 v70,2013-04-15 11:36:00,
2013-04-15 07:41:00,33.0,-34.7,30.34,WSW,247,0.0,3.0,4,0.00,,,0.00,Weather View 32 v70,2013-04-15 11:41:00,
2013-04-15 07:46:00,33.0,-27.4,30.34,WSW,247,0.0,3.0,6,0.00,,,0.00,Weather View 32 v70,2013-04-15 11:46:00,
2013-04-15 07:51:00,34.0,-34.0,30.35,SSW,202,0.0,3.0,4,0.00,,,0.00,Weather View 32 v70,2013-04-15 11:51:00,
2013-04-15 07:56:00,35.0,-33.3,30.35,SSW,202,0.0,3.0,4,0.00,,,0.00,Weather View 32 v70,2013-04-15 11:56:00,
2013-04-15 08:01:00,35.0,-25.9,30.35,South,180,0.0,3.0,6,0.00,,,0.00,Weather View 32 v70,2013-04-15 12:01:00,
2013-04-15 08:06:00,36.0,-0.2,30.35,SE,135,0.0,3.0,21,0.00,,,0.00,Weather View 32 v70,2013-04-15 12:06:00,
2013-04-15 08:11:00,36.0,5.2,30.35,SSE,157,0.0,3.0,27,0.00,,,0.00,Weather View 32 v70,2013-04-15 12:11:00,
2013-04-15 08:16:00,37.0,14.3,30.36,South,180,0.0,4.0,39,0.00,,,0.00,Weather View 32 v70,2013-04-15 12:16:00,
2013-04-15 08:21:00,38.0,14.0,30.36,South,180,0.0,4.0,37,0.00,,,0.00,Weather View 32 v70,2013-04-15 12:21:00,
2013-04-15 08:26:00,39.0,16.7,30.36,West,270,0.0,4.0,40,0.00,,,0.00,Weather View 32 v70,2013-04-15 12:26:00,
2013-04-15 08:31:00,40.0,23.3,30.37,ESE,112,0.0,4.0,51,0.00,,,0.00,Weather View 32 v70,2013-04-15 12:31:00,
2013-04-15 08:37:00,41.0,24.7,30.37,SW,225,0.0,4.0,52,0.00,,,0.00,Weather View 32 v70,2013-04-15 12:37:00,
2013-04-15 08:42:00,41.0,24.2,30.37,East,90,1.0,4.0,51,0.00,,,0.00,Weather View 32 v70,2013-04-15 12:42:00,
2013-04-15 08:47:00,42.0,25.6,30.37,South,180,1.0,4.0,52,0.00,,,0.00,Weather View 32 v70,2013-04-15 12:47:00,
2013-04-15 08:52:00,43.0,28.8,30.38,South,180,1.0,4.0,57,0.00,,,0.00,Weather View 32 v70,2013-04-15 12:52:00,
2013-04-15 08:57:00,44.0,31.8,30.38,ENE,67,4.0,6.0,62,0.00,,,0.00,Weather View 32 v70,2013-04-15 12:57:00,
2013-04-15 09:02:00,44.0,32.2,30.39,East,90,1.0,6.0,63,0.00,,,0.00,Weather View 32 v70,2013-04-15 13:02:00,
2013-04-15 09:07:00,46.0,34.9,30.39,ESE,112,0.0,6.0,65,0.00,,,0.00,Weather View 32 v70,2013-04-15 13:07:00,
2013-04-15 09:12:00,47.0,38.4,30.39,West,270,0.0,6.0,72,0.00,,,0.00,Weather View 32 v70,2013-04-15 13:12:00,
2013-04-15 09:17:00,48.0,38.7,30.39,SSW,202,0.0,6.0,70,0.00,,,0.00,Weather View 32 v70,2013-04-15 13:17:00,
2013-04-15 09:22:00,49.0,41.1,30.40,SE,135,0.0,6.0,74,0.00,,,0.00,Weather View 32 v70,2013-04-15 13:22:00,
2013-04-15 09:27:00,50.0,42.4,30.40,SE,135,3.0,6.0,75,0.00,,,0.00,Weather View 32 v70,2013-04-15 13:27:00,
2013-04-15 09:32:00,50.0,42.7,30.40,NE,45,3.0,6.0,76,0.00,,,0.00,Weather View 32 v70,2013-04-15 13:32:00,
2013-04-15 09:37:00,50.0,42.0,30.40,East,90,1.0,6.0,74,0.00,,,0.00,Weather View 32 v70,2013-04-15 13:37:00,
2013-04-15 09:42:00,50.0,41.7,30.41,ENE,67,3.0,6.0,73,0.00,,,0.00,Weather View 32 v70,2013-04-15 13:42:00,
2013-04-15 09:47:00,51.0,40.0,30.41,West,270,2.0,6.0,66,0.00,,,0.00,Weather View 32 v70,2013-04-15 13:47:00,
2013-04-15 09:52:00,51.0,37.2,30.41,SSW,202,0.0,6.0,59,0.00,,,0.00,Weather View 32 v70,2013-04-15 13:52:00,
2013-04-15 09:57:00,52.0,36.8,30.42,East,90,2.0,6.0,56,0.00,,,0.00,Weather View 32 v70,2013-04-15 13:57:00,
2013-04-15 10:02:00,52.0,34.4,30.42,NE,45,0.0,6.0,51,0.00,,,0.00,Weather View 32 v70,2013-04-15 14:02:00,
2013-04-15 10:07:00,53.0,36.3,30.42,SSW,202,0.0,6.0,53,0.00,,,0.00,Weather View 32 v70,2013-04-15 14:07:00,
2013-04-15 10:12:00,53.0,34.3,30.43,NE,45,3.0,6.0,49,0.00,,,0.00,Weather View 32 v70,2013-04-15 14:12:00,
2013-04-15 10:17:00,54.0,35.7,30.43,SSE,157,2.0,6.0,50,0.00,,,0.00,Weather View 32 v70,2013-04-15 14:17:00,
2013-04-15 10:22:00,54.0,34.7,30.43,SSE,157,2.0,6.0,48,0.00,,,0.00,Weather View 32 v70,2013-04-15 14:22:00,
2013-04-15 10:27:00,54.0,34.7,30.43,East,90,1.0,7.0,48,0.00,,,0.00,Weather View 32 v70,2013-04-15 14:27:00,
2013-04-15 10:32:00,54.0,34.7,30.43,SSE,157,2.0,7.0,48,0.00,,,0.00,Weather View 32 v70,2013-04-15 14:32:00,
2013-04-15 10:37:00,54.0,34.7,30.43,SSW,202,0.0,7.0,48,0.00,,,0.00,Weather View 32 v70,2013-04-15 14:37:00,
2013-04-15 10:42:00,54.0,34.2,30.43,WSW,247,1.0,7.0,47,0.00,,,0.00,Weather View 32 v70,2013-04-15 14:42:00,
2013-04-15 10:47:00,53.0,32.2,30.43,SW,225,0.0,7.0,45,0.00,,,0.00,Weather View 32 v70,2013-04-15 14:47:00,
2013-04-15 10:53:00,53.0,32.7,30.43,SW,225,0.0,7.0,46,0.00,,,0.00,Weather View 32 v70,2013-04-15 14:53:00,
2013-04-15 10:58:00,53.0,34.3,30.42,SSW,202,0.0,7.0,49,0.00,,,0.00,Weather View 32 v70,2013-04-15 14:58:00,
2013-04-15 11:03:00,53.0,34.3,30.42,SW,225,1.0,7.0,49,0.00,,,0.00,Weather View 32 v70,2013-04-15 15:03:00,
2013-04-15 11:08:00,53.0,33.8,30.42,SSW,202,0.0,7.0,48,0.00,,,0.00,Weather View 32 v70,2013-04-15 15:08:00,
2013-04-15 11:13:00,54.0,34.7,30.42,East,90,0.0,7.0,48,0.00,,,0.00,Weather View 32 v70,2013-04-15 15:13:00,
2013-04-15 11:18:00,54.0,33.6,30.42,WSW,247,0.0,7.0,46,0.00,,,0.00,Weather View 32 v70,2013-04-15 15:18:00,
2013-04-15 11:23:00,54.0,34.2,30.42,WSW,247,1.0,7.0,47,0.00,,,0.00,Weather View 32 v70,2013-04-15 15:23:00,
2013-04-15 11:28:00,55.0,33.4,30.42,WNW,292,0.0,6.0,44,0.00,,,0.00,Weather View 32 v70,2013-04-15 15:28:00,
2013-04-15 11:33:00,55.0,32.9,30.42,South,180,3.0,6.0,43,0.00,,,0.00,Weather View 32 v70,2013-04-15 15:33:00,
2013-04-15 11:38:00,56.0,32.0,30.42,WNW,292,0.0,6.0,40,0.00,,,0.00,Weather View 32 v70,2013-04-15 15:38:00,
2013-04-15 11:43:00,55.0,31.7,30.42,ENE,67,4.0,7.0,41,0.00,,,0.00,Weather View 32 v70,2013-04-15 15:43:00,
2013-04-15 11:48:00,56.0,34.9,30.42,SE,135,0.0,7.0,45,0.00,,,0.00,Weather View 32 v70,2013-04-15 15:48:00,
2013-04-15 11:53:00,57.0,36.4,30.42,South,180,1.0,7.0,46,0.00,,,0.00,Weather View 32 v70,2013-04-15 15:53:00,
2013-04-15 11:58:00,58.0,32.5,30.42,West,270,5.0,7.0,38,0.00,,,0.00,Weather View 32 v70,2013-04-15 15:58:00,
2013-04-15 12:03:00,57.0,33.5,30.42,SSE,157,0.0,7.0,41,0.00,,,0.00,Weather View 32 v70,2013-04-15 16:03:00,
2013-04-15 12:08:00,56.0,31.3,30.41,East,90,1.0,7.0,39,0.00,,,0.00,Weather View 32 v70,2013-04-15 16:08:00,
2013-04-15 12:13:00,57.0,33.5,30.41,SSW,202,1.0,7.0,41,0.00,,,0.00,Weather View 32 v70,2013-04-15 16:13:00,
2013-04-15 12:18:00,58.0,33.1,30.42,South,180,2.0,7.0,39,0.00,,,0.00,Weather View 32 v70,2013-04-15 16:18:00,
2013-04-15 12:23:00,58.0,32.5,30.41,West,270,1.0,7.0,38,0.00,,,0.00,Weather View 32 v70,2013-04-15 16:23:00,
2013-04-15 12:28:00,58.0,32.5,30.41,SE,135,1.0,7.0,38,0.00,,,0.00,Weather View 32 v70,2013-04-15 16:28:00,
2013-04-15 12:33:00,59.0,33.4,30.41,WSW,247,0.0,7.0,38,0.00,,,0.00,Weather View 32 v70,2013-04-15 16:33:00,
2013-04-15 12:38:00,59.0,34.7,30.41,ESE,112,3.0,7.0,40,0.00,,,0.00,Weather View 32 v70,2013-04-15 16:38:00,
2013-04-15 12:43:00,59.0,35.9,30.41,SSE,157,0.0,7.0,42,0.00,,,0.00,Weather View 32 v70,2013-04-15 16:43:00,
2013-04-15 12:48:00,60.0,34.9,30.41,South,180,1.0,7.0,39,0.00,,,0.00,Weather View 32 v70,2013-04-15 16:48:00,
2013-04-15 12:53:00,61.0,37.7,30.41,SE,135,1.0,7.0,42,0.00,,,0.00,Weather View 32 v70,2013-04-15 16:53:00,
2013-04-15 12:58:00,62.0,34.0,30.41,SE,135,3.0,6.0,35,0.00,,,0.00,Weather View 32 v70,2013-04-15 16:58:00,
2013-04-15 13:03:00,62.0,32.5,30.41,West,270,2.0,6.0,33,0.00,,,0.00,Weather View 32 v70,2013-04-15 17:03:00,
2013-04-15 13:08:00,62.0,32.5,30.41,West,270,4.0,6.0,33,0.00,,,0.00,Weather View 32 v70,2013-04-15 17:08:00,
2013-04-15 13:13:00,60.0,34.3,30.41,ESE,112,3.0,6.0,38,0.00,,,0.00,Weather View 32 v70,2013-04-15 17:13:00,
2013-04-15 13:18:00,61.0,33.1,30.41,WSW,247,0.0,7.0,35,0.00,,,0.00,Weather View 32 v70,2013-04-15 17:18:00,
2013-04-15 13:21:00,61.0,34.5,30.41,South,180,2.0,7.0,37,0.00,,,0.00,Weather View 32 v70,2013-04-15 17:21:00,
2013-04-15 13:22:00,61.0,35.2,30.41,WNW,292,2.0,7.0,38,0.00,,,0.00,Weather View 32 v70,2013-04-15 17:22:00,
2013-04-15 13:25:00,60.0,34.3,30.41,SW,225,1.0,7.0,38,0.00,,,0.00,Weather View 32 v70,2013-04-15 17:25:00,
2013-04-15 13:29:00,59.0,33.4,30.41,ESE,112,1.0,7.0,38,0.00,,,0.00,Weather View 32 v70,2013-04-15 17:29:00,
2013-04-15 13:35:00,60.0,32.9,30.41,WNW,292,0.0,7.0,36,0.00,,,0.00,Weather View 32 v70,2013-04-15 17:35:00,
2013-04-15 13:40:00,61.0,35.2,30.41,ESE,112,4.0,7.0,38,0.00,,,0.00,Weather View 32 v70,2013-04-15 17:40:00,
2013-04-15 13:45:00,61.0,32.4,30.41,WNW,292,1.0,7.0,34,0.00,,,0.00,Weather View 32 v70,2013-04-15 17:45:00,
2013-04-15 13:50:00,62.0,34.7,30.41,WSW,247,6.0,8.0,36,0.00,,,0.00,Weather View 32 v70,2013-04-15 17:50:00,
2013-04-15 13:55:00,62.0,33.2,30.41,West,270,1.0,8.0,34,0.00,,,0.00,Weather View 32 v70,2013-04-15 17:55:00,
2013-04-15 14:00:00,62.0,31.0,30.41,South,180,0.0,8.0,31,0.00,,,0.00,Weather View 32 v70,2013-04-15 18:00:00,
2013-04-15 14:05:00,63.0,33.4,30.41,SSW,202,0.0,8.0,33,0.00,,,0.00,Weather View 32 v70,2013-04-15 18:05:00,
2013-04-15 14:10:00,63.0,32.6,30.41,West,270,1.0,8.0,32,0.00,,,0.00,Weather View 32 v70,2013-04-15 18:10:00,
2013-04-15 14:15:00,62.0,32.5,30.41,South,180,0.0,8.0,33,0.00,,,0.00,Weather View 32 v70,2013-04-15 18:15:00,
2013-04-15 14:20:00,61.0,32.4,30.41,SSW,202,3.0,8.0,34,0.00,,,0.00,Weather View 32 v70,2013-04-15 18:20:00,
2013-04-15 14:25:00,61.0,31.6,30.40,SSE,157,3.0,8.0,33,0.00,,,0.00,Weather View 32 v70,2013-04-15 18:25:00,
2013-04-15 14:29:00,61.0,32.4,30.40,SE,135,0.0,8.0,34,0.00,,,0.00,Weather View 32 v70,2013-04-15 18:29:00,
2013-04-15 14:30:00,61.0,33.8,30.40,South,180,1.0,8.0,36,0.00,,,0.00,Weather View 32 v70,2013-04-15 18:30:00,
2013-04-15 14:35:00,62.0,33.2,30.41,WNW,292,4.0,8.0,34,0.00,,,0.00,Weather View 32 v70,2013-04-15 18:35:00,
2013-04-15 14:40:00,62.0,32.5,30.40,SSE,157,1.0,8.0,33,0.00,,,0.00,Weather View 32 v70,2013-04-15 18:40:00,
2013-04-15 14:45:00,62.0,32.5,30.40,ESE,112,3.0,8.0,33,0.00,,,0.00,Weather View 32 v70,2013-04-15 18:45:00,
2013-04-15 14:50:00,62.0,34.7,30.40,ENE,67,0.0,7.0,36,0.00,,,0.00,Weather View 32 v70,2013-04-15 18:50:00,
2013-04-15 14:55:00,62.0,32.5,30.40,South,180,0.0,6.0,33,0.00,,,0.00,Weather View 32 v70,2013-04-15 18:55:00,
2013-04-15 15:00:00,62.0,34.0,30.40,SE,135,0.0,6.0,35,0.00,,,0.00,Weather View 32 v70,2013-04-15 19:00:00,
2013-04-15 15:05:00,63.0,33.4,30.40,SSW,202,2.0,6.0,33,0.00,,,0.00,Weather View 32 v70,2013-04-15 19:05:00,
2013-04-15 15:10:00,63.0,36.9,30.40,SSW,202,2.0,6.0,38,0.00,,,0.00,Weather View 32 v70,2013-04-15 19:10:00,
2013-04-15 15:15:00,63.0,36.3,30.39,SSE,157,2.0,7.0,37,0.00,,,0.00,Weather View 32 v70,2013-04-15 19:15:00,
2013-04-15 15:20:00,62.0,34.7,30.39,East,90,3.0,7.0,36,0.00,,,0.00,Weather View 32 v70,2013-04-15 19:20:00,
2013-04-15 15:25:00,62.0,36.0,30.39,SE,135,3.0,9.0,38,0.00,,,0.00,Weather View 32 v70,2013-04-15 19:25:00,
2013-04-15 15:30:00,62.0,37.3,30.39,SSW,202,3.0,9.0,40,0.00,,,0.00,Weather View 32 v70,2013-04-15 19:30:00,
2013-04-15 15:35:00,62.0,37.3,30.39,NNW,337,3.0,9.0,40,0.00,,,0.00,Weather View 32 v70,2013-04-15 19:35:00,
2013-04-15 15:40:00,62.0,36.7,30.39,South,180,6.0,9.0,39,0.00,,,0.00,Weather View 32 v70,2013-04-15 19:40:00,
2013-04-15 15:45:00,61.0,35.2,30.39,SE,135,4.0,9.0,38,0.00,,,0.00,Weather View 32 v70,2013-04-15 19:45:00,
2013-04-15 15:50:00,60.0,36.2,30.39,East,90,7.0,9.0,41,0.00,,,0.00,Weather View 32 v70,2013-04-15 19:50:00,
2013-04-15 15:55:00,60.0,36.8,30.38,West,270,4.0,9.0,42,0.00,,,0.00,Weather View 32 v70,2013-04-15 19:55:00,
2013-04-15 15:57:00,60.0,36.8,30.38,SSE,157,1.0,9.0,42,0.00,,,0.00,Weather View 32 v70,2013-04-15 19:57:00,
2013-04-15 15:58:00,60.0,36.8,30.38,SSE,157,0.0,9.0,42,0.00,,,0.00,Weather View 32 v70,2013-04-15 19:58:00,
2013-04-15 16:02:00,60.0,37.4,30.38,SW,225,6.0,9.0,43,0.00,,,0.00,Weather View 32 v70,2013-04-15 20:02:00,
2013-04-15 16:03:00,60.0,36.8,30.38,West,270,3.0,9.0,42,0.00,,,0.00,Weather View 32 v70,2013-04-15 20:03:00,
2013-04-15 16:08:00,60.0,36.8,30.38,SSE,157,3.0,9.0,42,0.00,,,0.00,Weather View 32 v70,2013-04-15 20:08:00,
2013-04-15 16:13:00,60.0,36.8,30.38,NW,315,1.0,9.0,42,0.00,,,0.00,Weather View 32 v70,2013-04-15 20:13:00,
2013-04-15 16:18:00,59.0,35.9,30.38,SE,135,2.0,9.0,42,0.00,,,0.00,Weather View 32 v70,2013-04-15 20:18:00,
2013-04-15 16:23:00,59.0,36.5,30.38,East,90,10.0,10.0,43,0.00,,,0.00,Weather View 32 v70,2013-04-15 20:23:00,
2013-04-15 16:28:00,58.0,35.6,30.37,WNW,292,5.0,10.0,43,0.00,,,0.00,Weather View 32 v70,2013-04-15 20:28:00,
2013-04-15 16:33:00,58.0,37.3,30.37,ESE,112,3.0,10.0,46,0.00,,,0.00,Weather View 32 v70,2013-04-15 20:33:00,
2013-04-15 16:38:00,57.0,35.3,30.37,East,90,2.0,10.0,44,0.00,,,0.00,Weather View 32 v70,2013-04-15 20:38:00,
2013-04-15 16:43:00,57.0,35.8,30.37,ESE,112,6.0,10.0,45,0.00,,,0.00,Weather View 32 v70,2013-04-15 20:43:00,
2013-04-15 16:48:00,57.0,36.4,30.37,West,270,1.0,10.0,46,0.00,,,0.00,Weather View 32 v70,2013-04-15 20:48:00,
2013-04-15 16:53:00,57.0,35.8,30.37,East,90,7.0,10.0,45,0.00,,,0.00,Weather View 32 v70,2013-04-15 20:53:00,
2013-04-15 16:58:00,56.0,35.5,30.37,North,360,1.0,10.0,46,0.00,,,0.00,Weather View 32 v70,2013-04-15 20:58:00,
2013-04-15 17:03:00,56.0,36.5,30.37,ESE,112,1.0,10.0,48,0.00,,,0.00,Weather View 32 v70,2013-04-15 21:03:00,
2013-04-15 17:08:00,55.0,35.6,30.36,SE,135,5.0,10.0,48,0.00,,,0.00,Weather View 32 v70,2013-04-15 21:08:00,
2013-04-15 17:13:00,55.0,35.6,30.37,ENE,67,0.0,10.0,48,0.00,,,0.00,Weather View 32 v70,2013-04-15 21:13:00,
2013-04-15 17:18:00,54.0,36.2,30.37,SW,225,0.0,10.0,51,0.00,,,0.00,Weather View 32 v70,2013-04-15 21:18:00,
2013-04-15 17:25:00,54.0,36.2,30.37,East,90,2.0,10.0,51,0.00,,,0.00,Weather View 32 v70,2013-04-15 21:25:00,
2013-04-15 17:30:00,54.0,36.2,30.37,ESE,112,5.0,10.0,51,0.00,,,0.00,Weather View 32 v70,2013-04-15 21:30:00,
2013-04-15 17:35:00,54.0,36.7,30.37,ESE,112,4.0,11.0,52,0.00,,,0.00,Weather View 32 v70,2013-04-15 21:35:00,
2013-04-15 17:40:00,54.0,36.7,30.37,SE,135,3.0,11.0,52,0.00,,,0.00,Weather View 32 v70,2013-04-15 21:40:00,
2013-04-15 17:45:00,54.0,36.2,30.37,NNE,22,1.0,11.0,51,0.00,,,0.00,Weather View 32 v70,2013-04-15 21:45:00,
2013-04-15 17:50:00,54.0,37.2,30.37,SE,135,0.0,11.0,53,0.00,,,0.00,Weather View 32 v70,2013-04-15 21:50:00,
2013-04-15 17:55:00,54.0,36.7,30.37,SSW,202,4.0,11.0,52,0.00,,,0.00,Weather View 32 v70,2013-04-15 21:55:00,
2013-04-15 18:00:00,54.0,37.2,30.37,North,360,0.0,11.0,53,0.00,,,0.00,Weather View 32 v70,2013-04-15 22:00:00,
2013-04-15 18:05:00,54.0,37.2,30.37,NE,45,4.0,11.0,53,0.00,,,0.00,Weather View 32 v70,2013-04-15 22:05:00,
2013-04-15 18:10:00,54.0,38.2,30.37,SSW,202,3.0,11.0,55,0.00,,,0.00,Weather View 32 v70,2013-04-15 22:10:00,
2013-04-15 18:15:00,54.0,38.6,30.37,ENE,67,4.0,11.0,56,0.00,,,0.00,Weather View 32 v70,2013-04-15 22:15:00,
2013-04-15 18:20:00,53.0,38.1,30.38,East,90,2.0,11.0,57,0.00,,,0.00,Weather View 32 v70,2013-04-15 22:20:00,
2013-04-15 18:25:00,53.0,39.0,30.38,North,360,3.0,11.0,59,0.00,,,0.00,Weather View 32 v70,2013-04-15 22:25:00,
2013-04-15 18:30:00,52.0,39.4,30.37,SE,135,4.0,11.0,62,0.00,,,0.00,Weather View 32 v70,2013-04-15 22:30:00,
2013-04-15 18:35:00,52.0,41.0,30.37,ENE,67,1.0,8.0,66,0.00,,,0.00,Weather View 32 v70,2013-04-15 22:35:00,
2013-04-15 18:40:00,51.0,41.2,30.37,ENE,67,0.0,8.0,69,0.00,,,0.00,Weather View 32 v70,2013-04-15 22:40:00,
2013-04-15 18:45:00,51.0,42.3,30.37,ENE,67,3.0,8.0,72,0.00,,,0.00,Weather View 32 v70,2013-04-15 22:45:00,
2013-04-15 18:50:00,51.0,43.7,30.37,North,360,0.0,8.0,76,0.00,,,0.00,Weather View 32 v70,2013-04-15 22:50:00,
2013-04-15 18:55:00,50.0,43.1,30.37,South,180,1.0,8.0,77,0.00,,,0.00,Weather View 32 v70,2013-04-15 22:55:00,
2013-04-15 19:00:00,50.0,43.7,30.37,East,90,0.0,8.0,79,0.00,,,0.00,Weather View 32 v70,2013-04-15 23:00:00,
2013-04-15 19:05:00,50.0,44.7,30.37,ENE,67,3.0,8.0,82,0.00,,,0.00,Weather View 32 v70,2013-04-15 23:05:00,
2013-04-15 19:10:00,49.0,44.4,30.37,SSW,202,0.0,8.0,84,0.00,,,0.00,Weather View 32 v70,2013-04-15 23:10:00,
2013-04-15 19:15:00,49.0,45.3,30.37,ENE,67,2.0,8.0,87,0.00,,,0.00,Weather View 32 v70,2013-04-15 23:15:00,
2013-04-15 19:20:00,49.0,45.0,30.38,ESE,112,1.0,8.0,86,0.00,,,0.00,Weather View 32 v70,2013-04-15 23:20:00,
2013-04-15 19:25:00,49.0,45.9,30.38,ENE,67,5.0,8.0,89,0.00,,,0.00,Weather View 32 v70,2013-04-15 23:25:00,
2013-04-15 19:30:00,48.0,45.5,30.39,ENE,67,0.0,8.0,91,0.00,,,0.00,Weather View 32 v70,2013-04-15 23:30:00,
2013-04-15 19:35:00,48.0,45.5,30.39,North,360,0.0,7.0,91,0.00,,,0.00,Weather View 32 v70,2013-04-15 23:35:00,
2013-04-15 19:40:00,48.0,45.5,30.39,East,90,0.0,7.0,91,0.00,,,0.00,Weather View 32 v70,2013-04-15 23:40:00,
2013-04-15 19:45:00,47.0,44.5,30.39,East,90,0.0,7.0,91,0.00,,,0.00,Weather View 32 v70,2013-04-15 23:45:00,
2013-04-15 19:50:00,47.0,44.5,30.40,SSE,157,0.0,7.0,91,0.00,,,0.00,Weather View 32 v70,2013-04-15 23:50:00,
2013-04-15 19:55:00,47.0,39.8,30.40,NE,45,3.0,7.0,76,0.00,,,0.00,Weather View 32 v70,2013-04-15 23:55:00,
2013-04-15 20:00:00,47.0,34.6,30.40,East,90,2.0,7.0,62,0.00,,,0.00,Weather View 32 v70,2013-04-16 00:00:00,
2013-04-15 20:05:00,46.0,31.6,30.39,NNE,22,0.0,7.0,57,0.00,,,0.00,Weather View 32 v70,2013-04-16 00:05:00,
2013-04-15 20:10:00,46.0,30.7,30.39,SE,135,0.0,7.0,55,0.00,,,0.00,Weather View 32 v70,2013-04-16 00:10:00,
2013-04-15 20:15:00,46.0,31.6,30.39,SE,135,0.0,6.0,57,0.00,,,0.00,Weather View 32 v70,2013-04-16 00:15:00,
2013-04-15 20:20:00,46.0,30.3,30.39,SE,135,2.0,6.0,54,0.00,,,0.00,Weather View 32 v70,2013-04-16 00:20:00,
2013-04-15 20:25:00,45.0,28.4,30.38,SE,135,0.0,6.0,52,0.00,,,0.00,Weather View 32 v70,2013-04-16 00:25:00,
2013-04-15 20:30:00,45.0,28.9,30.38,SE,135,0.0,6.0,53,0.00,,,0.00,Weather View 32 v70,2013-04-16 00:30:00,
2013-04-15 20:35:00,45.0,28.4,30.38,SE,135,0.0,6.0,52,0.00,,,0.00,Weather View 32 v70,2013-04-16 00:35:00,
2013-04-15 20:40:00,45.0,28.4,30.38,SE,135,0.0,6.0,52,0.00,,,0.00,Weather View 32 v70,2013-04-16 00:40:00,
2013-04-15 20:45:00,45.0,28.4,30.38,SE,135,0.0,6.0,52,0.00,,,0.00,Weather View 32 v70,2013-04-16 00:45:00,
2013-04-15 20:50:00,45.0,28.4,30.38,SE,135,0.0,6.0,52,0.00,,,0.00,Weather View 32 v70,2013-04-16 00:50:00,
2013-04-15 20:55:00,45.0,29.3,30.38,SE,135,1.0,6.0,54,0.00,,,0.00,Weather View 32 v70,2013-04-16 00:55:00,
2013-04-15 21:00:00,45.0,30.7,30.38,South,180,0.0,5.0,57,0.00,,,0.00,Weather View 32 v70,2013-04-16 01:00:00,
2013-04-15 21:05:00,45.0,31.1,30.39,South,180,2.0,3.0,58,0.00,,,0.00,Weather View 32 v70,2013-04-16 01:05:00,
2013-04-15 21:10:00,45.0,32.3,30.39,SE,135,0.0,3.0,61,0.00,,,0.00,Weather View 32 v70,2013-04-16 01:10:00,
2013-04-15 21:15:00,45.0,32.3,30.39,WSW,247,2.0,3.0,61,0.00,,,0.00,Weather View 32 v70,2013-04-16 01:15:00,
2013-04-15 21:20:00,45.0,32.7,30.39,WSW,247,0.0,3.0,62,0.00,,,0.00,Weather View 32 v70,2013-04-16 01:20:00,
2013-04-15 21:25:00,45.0,33.5,30.39,WSW,247,0.0,4.0,64,0.00,,,0.00,Weather View 32 v70,2013-04-16 01:25:00,
2013-04-15 21:30:00,45.0,34.3,30.39,WSW,247,1.0,4.0,66,0.00,,,0.00,Weather View 32 v70,2013-04-16 01:30:00,
2013-04-15 21:35:00,45.0,34.7,30.40,SSW,202,1.0,4.0,67,0.00,,,0.00,Weather View 32 v70,2013-04-16 01:35:00,
2013-04-15 21:40:00,45.0,34.7,30.40,SSE,157,1.0,6.0,67,0.00,,,0.00,Weather View 32 v70,2013-04-16 01:40:00,
2013-04-15 21:45:00,45.0,35.1,30.40,SSW,202,0.0,6.0,68,0.00,,,0.00,Weather View 32 v70,2013-04-16 01:45:00,
2013-04-15 21:50:00,45.0,35.4,30.40,SSE,157,2.0,6.0,69,0.00,,,0.00,Weather View 32 v70,2013-04-16 01:50:00,
2013-04-15 21:55:00,45.0,35.4,30.40,SW,225,1.0,6.0,69,0.00,,,0.00,Weather View 32 v70,2013-04-16 01:55:00,
2013-04-15 22:00:00,45.0,35.4,30.40,SSE,157,1.0,6.0,69,0.00,,,0.00,Weather View 32 v70,2013-04-16 02:00:00,
2013-04-15 22:05:00,45.0,34.7,30.40,SSE,157,0.0,6.0,67,0.00,,,0.00,Weather View 32 v70,2013-04-16 02:05:00,
2013-04-15 22:10:00,45.0,34.7,30.40,West,270,0.0,6.0,67,0.00,,,0.00,Weather View 32 v70,2013-04-16 02:10:00,
2013-04-15 22:15:00,45.0,34.3,30.40,WSW,247,2.0,7.0,66,0.00,,,0.00,Weather View 32 v70,2013-04-16 02:15:00,
2013-04-15 22:20:00,45.0,34.3,30.40,SSE,157,2.0,7.0,66,0.00,,,0.00,Weather View 32 v70,2013-04-16 02:20:00,
2013-04-15 22:25:00,45.0,34.3,30.40,South,180,1.0,7.0,66,0.00,,,0.00,Weather View 32 v70,2013-04-16 02:25:00,
2013-04-15 22:30:00,45.0,34.3,30.41,South,180,0.0,7.0,66,0.00,,,0.00,Weather View 32 v70,2013-04-16 02:30:00,
2013-04-15 22:35:00,45.0,33.9,30.41,South,180,2.0,7.0,65,0.00,,,0.00,Weather View 32 v70,2013-04-16 02:35:00,
2013-04-15 22:40:00,44.0,33.0,30.41,South,180,0.0,7.0,65,0.00,,,0.00,Weather View 32 v70,2013-04-16 02:40:00,
2013-04-15 22:45:00,44.0,32.2,30.40,West,270,0.0,7.0,63,0.00,,,0.00,Weather View 32 v70,2013-04-16 02:45:00,
2013-04-15 22:50:00,44.0,32.2,30.40,WSW,247,1.0,7.0,63,0.00,,,0.00,Weather View 32 v70,2013-04-16 02:50:00,
2013-04-15 22:55:00,44.0,32.6,30.40,ESE,112,1.0,7.0,64,0.00,,,0.00,Weather View 32 v70,2013-04-16 02:55:00,
2013-04-15 23:00:00,44.0,32.6,30.40,North,360,0.0,7.0,64,0.00,,,0.00,Weather View 32 v70,2013-04-16 03:00:00,
2013-04-15 23:05:00,44.0,32.2,30.40,SSW,202,3.0,7.0,63,0.00,,,0.00,Weather View 32 v70,2013-04-16 03:05:00,
2013-04-15 23:10:00,44.0,32.2,30.40,South,180,1.0,7.0,63,0.00,,,0.00,Weather View 32 v70,2013-04-16 03:10:00,
2013-04-15 23:15:00,43.0,30.9,30.40,SW,225,0.0,6.0,62,0.00,,,0.00,Weather View 32 v70,2013-04-16 03:15:00,
2013-04-15 23:20:00,43.0,31.2,30.40,SW,225,0.0,6.0,63,0.00,,,0.00,Weather View 32 v70,2013-04-16 03:20:00,
2013-04-15 23:25:00,43.0,30.0,30.39,WSW,247,0.0,6.0,60,0.00,,,0.00,Weather View 32 v70,2013-04-16 03:25:00,
2013-04-15 23:30:00,43.0,30.5,30.39,South,180,0.0,6.0,61,0.00,,,0.00,Weather View 32 v70,2013-04-16 03:30:00,
2013-04-15 23:35:00,43.0,30.0,30.39,WSW,247,2.0,6.0,60,0.00,,,0.00,Weather View 32 v70,2013-04-16 03:35:00,
2013-04-15 23:40:00,43.0,30.0,30.39,WSW,247,0.0,6.0,60,0.00,,,0.00,Weather View 32 v70,2013-04-16 03:40:00,
2013-04-15 23:45:00,43.0,30.0,30.40,WSW,247,2.0,6.0,60,0.00,,,0.00,Weather View 32 v70,2013-04-16 03:45:00,
2013-04-15 23:50:00,43.0,29.6,30.40,WSW,247,0.0,6.0,59,0.00,,,0.00,Weather View 32 v70,2013-04-16 03:50:00,
2013-04-15 23:55:00,42.0,28.7,30.40,SSW,202,0.0,6.0,59,0.00,,,0.00,Weather View 32 v70,2013-04-16 03:55:00,